Time;durP1;ratioP1;P1;durP2;ratioP2;P2;SDS_P1;SDS_P2;PMS_P1;PMS_P2;Temp;Humidity;BMP_temperature;BMP_pressure;BME280_temperature;BME280_humidity;BME280_pressure;Samples;Min_cycle;Max_cycle;Signal;HPM_P1;HPM_P2
2023/06/21 00:04:03;;;;;;;5.88;3.20;;;23.30;86.20;;;;;;10457850;28;20207;-70
2023/06/21 00:09:04;;;;;;;4.82;3.08;;;23.30;86.20;;;;;;10445641;28;20029;-70
2023/06/21 00:14:04;;;;;;;4.47;3.38;;;23.20;86.20;;;;;;10440134;28;20031;-70
2023/06/21 00:19:05;;;;;;;6.90;3.13;;;23.20;86.30;;;;;;10450281;28;20024;-70
2023/06/21 00:24:07;;;;;;;5.63;3.85;;;23.20;86.30;;;;;;10450392;28;20039;-70
2023/06/21 00:29:08;;;;;;;6.60;3.80;;;23.20;86.30;;;;;;10445098;28;20108;-69
2023/06/21 00:34:08;;;;;;;4.72;3.25;;;23.20;86.40;;;;;;10448835;28;20030;-71
2023/06/21 00:39:10;;;;;;;7.32;3.63;;;23.10;86.40;;;;;;10449742;28;20025;-69
2023/06/21 00:44:10;;;;;;;4.45;3.70;;;23.10;86.40;;;;;;10449265;28;20025;-70
2023/06/21 00:49:11;;;;;;;6.38;3.80;;;23.10;86.50;;;;;;10450938;28;20021;-71
2023/06/21 00:54:16;;;;;;;5.65;4.15;;;23.00;87.00;;;;;;10454613;28;20023;-70
2023/06/21 00:59:17;;;;;;;4.88;3.65;;;23.10;86.50;;;;;;10449545;28;20732;-70
2023/06/21 01:04:17;;;;;;;5.57;3.65;;;23.10;86.60;;;;;;10453918;28;20087;-70
2023/06/21 01:09:50;;;;;;;6.75;4.38;;;22.90;86.60;;;;;;10449345;28;20416;-70
2023/06/21 01:15:01;;;;;;;5.43;4.10;;;23.00;86.80;;;;;;10446774;28;20385;-70
2023/06/21 01:20:13;;;;;;;5.95;4.60;;;22.90;86.70;;;;;;10441082;28;20098;-71
2023/06/21 01:25:41;;;;;;;6.25;4.68;;;22.90;86.70;;;;;;10448763;28;20017;-69
2023/06/21 01:30:45;;;;;;;5.30;4.00;;;22.90;86.90;;;;;;10451339;28;20039;-70
2023/06/21 01:35:46;;;;;;;6.47;3.88;;;22.90;86.80;;;;;;10441820;28;20021;-71
2023/06/21 01:40:46;;;;;;;7.43;4.28;;;22.80;86.70;;;;;;10449530;28;20396;-70
2023/06/21 01:45:48;;;;;;;6.53;4.43;;;22.80;86.80;;;;;;10446767;28;20417;-70
2023/06/21 01:50:51;;;;;;;5.70;4.20;;;22.80;86.80;;;;;;10451125;28;20044;-71
2023/06/21 01:55:56;;;;;;;5.65;4.13;;;22.80;86.90;;;;;;10445068;28;20074;-69
2023/06/21 02:00:59;;;;;;;6.57;4.72;;;22.60;86.80;;;;;;10455043;28;20031;-69
2023/06/21 02:06:05;;;;;;;6.53;5.43;;;22.70;86.90;;;;;;10442055;28;20097;-70
2023/06/21 02:11:05;;;;;;;6.30;4.72;;;22.70;86.90;;;;;;10443220;28;20683;-70
2023/06/21 02:16:06;;;;;;;7.60;5.07;;;22.60;86.80;;;;;;10425032;28;20020;-70
2023/06/21 02:21:07;;;;;;;5.82;4.75;;;22.50;86.80;;;;;;10431959;28;20052;-70
2023/06/21 02:26:07;;;;;;;7.80;5.90;;;22.60;86.90;;;;;;10436529;28;20029;-70
2023/06/21 02:31:08;;;;;;;7.72;5.32;;;22.60;87.00;;;;;;10448598;28;20374;-70
2023/06/21 02:36:08;;;;;;;7.20;5.25;;;22.60;87.00;;;;;;10429387;28;20021;-70
2023/06/21 02:41:09;;;;;;;9.20;6.07;;;22.60;87.10;;;;;;10442405;28;20021;-70
2023/06/21 02:46:10;;;;;;;8.90;6.38;;;22.60;87.10;;;;;;10445394;28;20503;-72
2023/06/21 02:51:10;;;;;;;10.68;6.45;;;22.40;87.10;;;;;;10444268;28;20039;-71
2023/06/21 02:56:11;;;;;;;7.57;6.03;;;22.40;87.10;;;;;;10443150;28;20025;-70
2023/06/21 03:01:13;;;;;;;9.00;6.68;;;22.50;87.20;;;;;;10438753;28;20032;-71
2023/06/21 03:06:13;;;;;;;8.48;6.00;;;22.40;87.20;;;;;;10441776;28;20013;-70
2023/06/21 03:11:14;;;;;;;7.43;6.20;;;22.50;87.40;;;;;;10448298;28;20025;-70
2023/06/21 03:16:15;;;;;;;7.97;6.60;;;22.40;87.30;;;;;;10435417;28;20017;-70
2023/06/21 03:21:16;;;;;;;7.78;6.07;;;22.40;87.30;;;;;;10452113;28;20505;-70
2023/06/21 03:26:16;;;;;;;8.70;6.53;;;22.40;87.40;;;;;;10447941;28;20033;-72
2023/06/21 03:31:19;;;;;;;8.02;6.53;;;22.40;87.40;;;;;;10452968;28;20017;-71
2023/06/21 03:36:20;;;;;;;8.20;6.28;;;22.40;87.40;;;;;;10446067;28;20024;-70
2023/06/21 03:41:21;;;;;;;9.82;6.78;;;22.40;87.50;;;;;;10454139;28;20702;-70
2023/06/21 03:46:22;;;;;;;8.57;6.22;;;22.30;87.40;;;;;;10441879;28;20100;-70
2023/06/21 03:51:22;;;;;;;10.57;6.97;;;22.30;87.50;;;;;;10446025;28;20051;-70
2023/06/21 03:56:23;;;;;;;10.88;7.47;;;22.30;87.50;;;;;;10448765;28;20017;-70
2023/06/21 04:01:24;;;;;;;9.32;7.05;;;22.30;87.50;;;;;;10449106;28;20104;-70
2023/06/21 04:06:25;;;;;;;9.68;6.88;;;22.20;87.40;;;;;;10450529;28;20017;-70
2023/06/21 04:11:26;;;;;;;9.65;7.75;;;22.20;87.50;;;;;;10444152;28;20020;-70
2023/06/21 04:16:26;;;;;;;10.02;7.30;;;22.30;87.50;;;;;;10443047;28;20485;-70
2023/06/21 04:21:27;;;;;;;10.27;8.00;;;22.30;87.60;;;;;;10450474;28;20013;-71
2023/06/21 04:26:28;;;;;;;10.13;7.80;;;22.20;87.50;;;;;;10444608;28;20111;-72
2023/06/21 04:31:29;;;;;;;10.45;7.82;;;22.20;87.50;;;;;;10449819;28;20025;-71
2023/06/21 04:36:29;;;;;;;10.45;7.88;;;22.20;87.50;;;;;;10453056;28;20033;-70
2023/06/21 04:41:30;;;;;;;10.93;7.95;;;22.20;87.50;;;;;;10450777;28;20392;-71
2023/06/21 04:46:31;;;;;;;12.10;8.43;;;22.10;87.40;;;;;;10452492;28;20023;-70
2023/06/21 04:51:31;;;;;;;11.75;8.88;;;22.10;87.40;;;;;;10459517;28;20047;-70
2023/06/21 04:56:32;;;;;;;11.75;8.63;;;22.00;87.30;;;;;;10457715;28;20024;-70
2023/06/21 05:01:32;;;;;;;13.80;9.55;;;22.10;87.40;;;;;;10455513;28;20027;-71
2023/06/21 05:06:33;;;;;;;11.93;8.93;;;22.10;87.40;;;;;;10451537;28;20033;-71
2023/06/21 05:11:34;;;;;;;11.18;8.13;;;22.10;87.40;;;;;;10452661;28;20077;-70
2023/06/21 05:16:34;;;;;;;12.85;9.00;;;22.00;87.30;;;;;;10454149;28;20029;-70
2023/06/21 05:21:35;;;;;;;11.80;7.95;;;22.10;87.30;;;;;;10447002;28;20044;-69
2023/06/21 05:26:36;;;;;;;10.90;8.32;;;22.10;87.30;;;;;;10452997;28;20033;-69
2023/06/21 05:31:37;;;;;;;11.43;9.02;;;22.10;87.20;;;;;;10454121;28;20044;-70
2023/06/21 05:36:37;;;;;;;10.43;8.15;;;22.10;87.20;;;;;;10449819;28;20021;-70
2023/06/21 05:41:38;;;;;;;12.60;9.13;;;22.10;87.20;;;;;;10452861;28;20025;-70
2023/06/21 05:46:38;;;;;;;11.40;8.63;;;22.10;87.20;;;;;;10452897;28;20124;-70
2023/06/21 05:51:39;;;;;;;12.63;8.93;;;22.10;87.20;;;;;;10449601;28;20032;-70
2023/06/21 05:56:40;;;;;;;11.05;8.20;;;22.10;87.30;;;;;;10455013;28;20190;-70
2023/06/21 06:01:40;;;;;;;13.00;8.90;;;22.10;87.30;;;;;;10435758;28;20067;-71
2023/06/21 06:06:41;;;;;;;13.82;8.90;;;22.10;87.30;;;;;;10439373;28;20024;-68
2023/06/21 06:11:42;;;;;;;10.13;8.02;;;22.10;87.30;;;;;;10453168;28;20024;-68
2023/06/21 06:16:42;;;;;;;9.50;7.82;;;22.10;87.30;;;;;;10454187;28;20048;-69
2023/06/21 06:21:44;;;;;;;13.80;8.50;;;22.20;87.30;;;;;;10449817;28;20091;-69
2023/06/21 06:26:45;;;;;;;9.93;7.38;;;22.10;87.20;;;;;;10443883;28;20108;-69
2023/06/21 06:31:45;;;;;;;10.73;7.60;;;22.20;87.20;;;;;;10446485;28;20477;-68
2023/06/21 06:36:46;;;;;;;10.60;7.82;;;22.10;87.10;;;;;;10451802;28;20381;-69
2023/06/21 06:41:46;;;;;;;10.88;7.20;;;22.10;87.00;;;;;;10455365;28;20128;-68
2023/06/21 06:46:47;;;;;;;11.23;7.22;;;22.10;87.00;;;;;;10444454;28;20435;-69
2023/06/21 06:51:48;;;;;;;10.10;7.32;;;22.20;87.00;;;;;;10461309;28;20485;-69
2023/06/21 06:56:48;;;;;;;10.43;7.38;;;22.20;86.90;;;;;;10463888;28;20037;-71
2023/06/21 07:01:50;;;;;;;10.88;7.05;;;22.20;86.80;;;;;;10459577;28;20094;-70
2023/06/21 07:06:50;;;;;;;8.75;6.65;;;22.30;86.80;;;;;;10447820;28;20032;-72
2023/06/21 07:11:51;;;;;;;7.97;5.97;;;22.30;86.80;;;;;;10448967;28;20396;-69
2023/06/21 07:16:52;;;;;;;8.40;6.60;;;22.30;86.70;;;;;;10448398;28;20544;-70
2023/06/21 07:21:52;;;;;;;8.30;6.20;;;22.30;86.70;;;;;;10452854;28;20443;-69
2023/06/21 07:26:53;;;;;;;8.75;6.15;;;22.30;86.70;;;;;;10440971;28;20098;-68
2023/06/21 07:31:53;;;;;;;7.43;6.00;;;22.40;86.70;;;;;;10449478;28;20115;-68
2023/06/21 07:36:54;;;;;;;7.20;5.55;;;22.40;86.70;;;;;;10440516;28;20041;-70
2023/06/21 07:41:57;;;;;;;8.55;5.50;;;22.40;86.70;;;;;;10449461;28;20028;-69
2023/06/21 07:46:58;;;;;;;7.90;6.07;;;22.40;86.70;;;;;;10448069;28;20519;-70
2023/06/21 07:51:58;;;;;;;6.80;5.30;;;22.40;86.80;;;;;;10447537;28;20022;-67
2023/06/21 07:56:59;;;;;;;6.95;5.32;;;22.40;86.70;;;;;;10448006;28;20042;-65
2023/06/21 08:02:00;;;;;;;5.75;4.70;;;22.40;86.70;;;;;;10458709;28;20112;-66
2023/06/21 08:07:00;;;;;;;7.93;5.55;;;22.40;86.70;;;;;;10439837;28;20551;-67
2023/06/21 08:12:01;;;;;;;11.65;7.05;;;22.50;86.70;;;;;;10439751;28;20394;-68
2023/06/21 08:17:02;;;;;;;12.25;8.02;;;22.50;87.60;;;;;;10431637;28;20110;-70
2023/06/21 08:22:03;;;;;;;16.13;8.48;;;22.40;88.60;;;;;;10450239;28;20020;-69
2023/06/21 08:27:03;;;;;;;11.00;6.68;;;22.50;89.90;;;;;;10445237;28;20028;-68
2023/06/21 08:32:05;;;;;;;11.77;6.78;;;22.40;90.10;;;;;;10434706;28;20485;-68
2023/06/21 08:37:05;;;;;;;11.68;7.40;;;22.40;90.20;;;;;;10445967;28;20024;-68
2023/06/21 08:42:06;;;;;;;11.48;6.50;;;22.50;90.40;;;;;;10447647;28;20020;-69
2023/06/21 08:47:07;;;;;;;11.18;6.38;;;22.50;90.50;;;;;;10439166;28;20053;-69
2023/06/21 08:52:13;;;;;;;11.20;7.65;;;22.60;90.60;;;;;;10443073;28;20025;-69
2023/06/21 08:57:22;;;;;;;11.18;6.57;;;22.60;90.60;;;;;;10449845;28;20024;-68
2023/06/21 09:02:31;;;;;;;9.40;5.85;;;22.60;90.60;;;;;;10440971;28;20157;-69
2023/06/21 09:07:34;;;;;;;8.77;6.15;;;22.70;90.70;;;;;;10458693;28;20133;-68
2023/06/21 09:12:37;;;;;;;8.50;5.63;;;22.70;90.60;;;;;;10443141;28;20493;-68
2023/06/21 09:17:38;;;;;;;8.23;5.32;;;22.80;90.40;;;;;;10447945;28;20477;-69
2023/06/21 09:22:42;;;;;;;9.13;5.40;;;22.80;90.20;;;;;;10443315;28;20583;-68
2023/06/21 09:27:43;;;;;;;11.35;5.82;;;22.80;90.20;;;;;;10433513;28;20033;-68
2023/06/21 09:32:43;;;;;;;9.13;5.28;;;22.90;90.10;;;;;;10443166;28;20493;-69
2023/06/21 09:37:45;;;;;;;6.25;4.30;;;23.00;90.30;;;;;;10435083;28;20472;-69
2023/06/21 09:42:46;;;;;;;7.85;4.97;;;23.20;90.20;;;;;;10435317;28;20102;-68
2023/06/21 09:47:47;;;;;;;6.75;4.50;;;23.30;89.90;;;;;;10446844;28;20041;-68
2023/06/21 09:52:47;;;;;;;5.15;3.75;;;23.30;89.60;;;;;;10441654;28;20536;-68
2023/06/21 09:57:52;;;;;;;8.57;4.22;;;23.30;89.30;;;;;;10435217;28;20027;-69
2023/06/21 10:02:53;;;;;;;7.40;4.43;;;23.30;89.30;;;;;;10439794;28;20017;-69
2023/06/21 10:07:57;;;;;;;6.90;4.10;;;23.20;89.60;;;;;;10448083;28;20017;-69
2023/06/21 10:12:57;;;;;;;8.45;4.85;;;23.20;89.80;;;;;;10443217;28;20503;-69
2023/06/21 10:17:58;;;;;;;7.10;4.57;;;23.20;89.60;;;;;;10447440;28;20025;-69
2023/06/21 10:23:01;;;;;;;9.73;6.10;;;23.20;89.50;;;;;;10448236;28;20281;-69
2023/06/21 10:28:05;;;;;;;9.90;5.43;;;23.30;89.20;;;;;;10436254;28;20037;-69
2023/06/21 10:33:08;;;;;;;7.75;5.00;;;23.50;88.90;;;;;;10436953;28;20550;-69
2023/06/21 10:38:31;;;;;;;6.93;4.38;;;23.70;88.40;;;;;;10445520;28;20025;-69
2023/06/21 10:43:33;;;;;;;4.97;3.47;;;23.80;87.60;;;;;;10434773;28;20028;-68
2023/06/21 10:48:33;;;;;;;7.07;4.35;;;23.70;88.00;;;;;;10440119;28;20448;-69
2023/06/21 10:53:35;;;;;;;7.32;4.30;;;23.80;88.00;;;;;;10445453;28;20029;-69
2023/06/21 10:58:36;;;;;;;6.65;5.22;;;23.80;87.90;;;;;;10445834;28;20480;-69
2023/06/21 11:03:38;;;;;;;7.97;4.65;;;23.90;87.50;;;;;;10438874;28;20021;-69
2023/06/21 11:08:39;;;;;;;9.13;6.05;;;23.90;87.30;;;;;;10452508;28;20086;-72
2023/06/21 11:13:39;;;;;;;7.68;5.43;;;24.00;87.00;;;;;;10448559;28;20549;-68
2023/06/21 11:18:43;;;;;;;7.82;5.80;;;24.10;86.70;;;;;;10446457;28;20025;-69
2023/06/21 11:23:50;;;;;;;8.73;5.00;;;24.30;86.30;;;;;;10439093;28;20443;-69
2023/06/21 11:28:51;;;;;;;7.10;5.28;;;24.50;86.20;;;;;;10445204;28;20021;-69
2023/06/21 11:33:57;;;;;;;8.80;6.85;;;24.60;85.70;;;;;;10447899;28;20021;-69
2023/06/21 11:39:04;;;;;;;8.40;5.30;;;24.70;85.30;;;;;;10444117;28;20024;-69
2023/06/21 11:44:10;;;;;;;7.88;5.03;;;24.70;84.30;;;;;;10451948;28;20053;-69
2023/06/21 11:49:11;;;;;;;6.97;3.95;;;24.70;84.30;;;;;;10459420;28;20017;-68
2023/06/21 11:54:12;;;;;;;4.93;3.97;;;24.60;84.40;;;;;;10451066;28;20029;-68
2023/06/21 11:59:12;;;;;;;5.35;3.20;;;24.70;84.20;;;;;;10446548;28;20028;-69
2023/06/21 12:04:22;;;;;;;5.78;3.55;;;24.70;83.90;;;;;;10445356;28;20013;-68
2023/06/21 12:09:23;;;;;;;4.47;3.30;;;24.70;83.20;;;;;;10455494;28;20074;-68
2023/06/21 12:14:25;;;;;;;4.63;3.00;;;25.00;83.10;;;;;;10457861;28;20070;-69
2023/06/21 12:19:25;;;;;;;6.00;3.03;;;25.20;81.90;;;;;;10448905;28;20032;-69
2023/06/21 12:24:27;;;;;;;2.75;2.47;;;25.20;81.70;;;;;;10447218;28;20037;-69
2023/06/21 12:29:28;;;;;;;5.63;2.92;;;25.30;80.90;;;;;;10448963;28;20028;-69
2023/06/21 12:34:28;;;;;;;3.58;2.75;;;25.40;81.00;;;;;;10443123;28;20013;-70
2023/06/21 12:39:29;;;;;;;4.00;2.75;;;25.60;80.80;;;;;;10446136;28;20535;-70
2023/06/21 12:44:31;;;;;;;3.53;2.58;;;25.70;80.60;;;;;;10427394;28;20086;-69
2023/06/21 12:49:32;;;;;;;3.95;2.60;;;25.80;80.40;;;;;;10438035;28;20028;-69
2023/06/21 12:54:33;;;;;;;5.70;2.15;;;25.90;80.10;;;;;;10445171;28;20253;-70
2023/06/21 12:59:34;;;;;;;2.17;1.95;;;26.00;79.60;;;;;;10434961;28;20095;-70
2023/06/21 13:04:34;;;;;;;3.97;2.30;;;26.20;79.00;;;;;;10441869;28;20036;-70
2023/06/21 13:09:35;;;;;;;3.05;2.00;;;26.20;78.60;;;;;;10443802;28;20413;-70
2023/06/21 13:14:35;;;;;;;2.42;2.00;;;26.00;78.70;;;;;;10437846;28;20032;-70
2023/06/21 13:19:38;;;;;;;3.53;2.00;;;26.00;78.70;;;;;;10441486;28;20018;-71
2023/06/21 13:24:38;;;;;;;3.03;2.00;;;26.00;78.10;;;;;;10440099;28;20029;-70
2023/06/21 13:29:39;;;;;;;4.10;1.95;;;26.20;77.30;;;;;;10436992;28;20021;-72
2023/06/21 13:34:40;;;;;;;2.90;1.50;;;26.30;76.80;;;;;;10442663;28;20051;-70
2023/06/21 13:39:41;;;;;;;9.18;1.85;;;26.40;76.30;;;;;;10439613;28;20032;-71
2023/06/21 13:44:41;;;;;;;2.25;1.77;;;26.50;75.50;;;;;;10436782;28;20028;-70
2023/06/21 13:49:48;;;;;;;4.30;1.77;;;26.50;75.70;;;;;;10440344;28;20039;-70
2023/06/21 13:54:49;;;;;;;5.80;2.23;;;26.50;75.60;;;;;;10439999;28;20021;-71
2023/06/21 13:59:50;;;;;;;5.20;1.67;;;26.70;75.70;;;;;;10444621;28;20032;-71
2023/06/21 14:04:51;;;;;;;3.13;2.00;;;26.90;75.90;;;;;;10435396;28;20104;-71
2023/06/21 14:09:51;;;;;;;4.75;2.58;;;27.00;76.30;;;;;;10447141;28;20479;-71
2023/06/21 14:14:52;;;;;;;7.20;2.92;;;27.10;75.50;;;;;;10450323;28;20174;-71
2023/06/21 14:19:53;;;;;;;5.43;2.95;;;27.10;76.40;;;;;;10438723;28;20032;-71
2023/06/21 14:24:53;;;;;;;6.72;3.42;;;27.20;75.80;;;;;;10437914;28;20371;-71
2023/06/21 14:29:54;;;;;;;6.60;3.80;;;27.20;76.30;;;;;;10440598;28;20024;-71
2023/06/21 14:34:59;;;;;;;8.38;3.75;;;27.30;76.00;;;;;;10434437;28;20112;-71
2023/06/21 14:40:03;;;;;;;7.03;3.22;;;27.30;75.80;;;;;;10439722;28;20067;-70
2023/06/21 14:45:04;;;;;;;4.28;2.75;;;27.40;76.10;;;;;;10432908;28;20025;-72
2023/06/21 14:50:06;;;;;;;7.72;3.90;;;27.40;75.80;;;;;;10442081;28;20332;-70
2023/06/21 14:55:07;;;;;;;6.47;2.95;;;27.40;76.20;;;;;;10440831;28;20127;-70
2023/06/21 15:00:08;;;;;;;7.07;3.13;;;27.40;76.20;;;;;;10429244;28;20036;-71
2023/06/21 15:05:09;;;;;;;6.18;3.30;;;27.60;76.10;;;;;;10433308;28;20320;-70
2023/06/21 15:10:10;;;;;;;4.70;2.70;;;27.60;75.60;;;;;;10449723;28;20060;-70
2023/06/21 15:15:13;;;;;;;3.88;2.33;;;27.60;75.50;;;;;;10443179;28;20028;-69
2023/06/21 15:20:14;;;;;;;5.15;2.58;;;27.60;75.30;;;;;;10454416;28;20541;-70
2023/06/21 15:25:15;;;;;;;4.20;2.25;;;27.60;74.70;;;;;;10448338;28;20078;-69
2023/06/21 15:30:16;;;;;;;7.10;3.38;;;27.40;74.70;;;;;;10450120;28;20467;-69
2023/06/21 15:35:17;;;;;;;3.50;2.28;;;27.20;74.60;;;;;;10449921;28;20025;-70
2023/06/21 15:40:17;;;;;;;5.10;2.42;;;27.20;74.90;;;;;;10450764;28;20025;-71
2023/06/21 15:45:18;;;;;;;3.78;2.17;;;27.30;74.50;;;;;;10442910;28;20603;-69
2023/06/21 15:50:18;;;;;;;3.53;2.10;;;27.20;74.60;;;;;;10445204;28;20033;-71
2023/06/21 15:55:19;;;;;;;2.80;1.75;;;27.00;74.50;;;;;;10451975;28;20021;-70
2023/06/21 16:00:21;;;;;;;6.82;2.20;;;26.90;75.10;;;;;;10451687;28;20017;-69
2023/06/21 16:05:21;;;;;;;4.90;2.60;;;26.70;74.60;;;;;;10449161;28;20017;-69
2023/06/21 16:10:22;;;;;;;4.95;2.65;;;26.50;74.80;;;;;;10450063;28;20029;-69
2023/06/21 16:15:26;;;;;;;4.55;2.22;;;26.30;75.00;;;;;;10449956;28;20864;-69
2023/06/21 16:20:28;;;;;;;4.40;2.25;;;26.10;75.50;;;;;;10452246;28;20024;-69
2023/06/21 16:25:28;;;;;;;4.13;2.50;;;26.00;75.80;;;;;;10444338;28;20025;-69
2023/06/21 16:30:29;;;;;;;4.45;2.53;;;26.00;76.00;;;;;;10451303;28;20028;-70
2023/06/21 16:35:29;;;;;;;5.38;3.17;;;25.90;75.70;;;;;;10453670;28;20087;-70
2023/06/21 16:40:30;;;;;;;3.20;2.30;;;25.80;75.70;;;;;;10443791;28;20464;-70
2023/06/21 16:45:31;;;;;;;3.40;2.47;;;25.80;75.50;;;;;;10443689;28;20082;-71
2023/06/21 16:50:31;;;;;;;3.97;2.22;;;25.70;75.70;;;;;;10450711;28;20156;-69
2023/06/21 16:55:32;;;;;;;3.55;2.20;;;25.60;76.00;;;;;;10449563;28;20031;-70
2023/06/21 17:00:33;;;;;;;4.40;2.30;;;25.60;76.00;;;;;;10452019;28;20021;-70
2023/06/21 17:05:33;;;;;;;6.05;2.88;;;25.50;75.80;;;;;;10447821;28;20116;-68
2023/06/21 17:10:34;;;;;;;4.53;2.30;;;25.40;76.20;;;;;;10458777;28;20551;-69
2023/06/21 17:15:34;;;;;;;5.47;2.55;;;25.30;76.40;;;;;;10447256;28;20112;-69
2023/06/21 17:20:35;;;;;;;3.72;2.60;;;25.30;76.30;;;;;;10452228;28;20528;-70
2023/06/21 17:25:36;;;;;;;3.05;2.20;;;25.30;76.10;;;;;;10450282;28;20032;-68
2023/06/21 17:30:36;;;;;;;3.25;2.30;;;25.20;76.10;;;;;;10439556;28;20064;-69
2023/06/21 17:35:37;;;;;;;6.00;2.30;;;25.20;76.50;;;;;;10443749;28;20026;-70
2023/06/21 17:40:37;;;;;;;4.10;2.10;;;25.10;76.50;;;;;;10443034;28;20485;-69
2023/06/21 17:45:38;;;;;;;8.85;2.55;;;25.10;77.00;;;;;;10444062;28;20017;-69
2023/06/21 17:50:39;;;;;;;6.15;2.95;;;25.00;77.20;;;;;;10445088;28;20489;-69
2023/06/21 17:55:40;;;;;;;5.32;2.47;;;24.80;77.60;;;;;;10441671;28;20232;-69
2023/06/21 18:00:40;;;;;;;6.38;2.47;;;24.80;78.00;;;;;;10440594;28;20040;-69
2023/06/21 18:05:41;;;;;;;3.25;2.20;;;24.70;78.10;;;;;;10447199;28;20584;-69
2023/06/21 18:10:42;;;;;;;5.38;3.08;;;24.70;78.40;;;;;;10434432;28;20496;-68
2023/06/21 18:15:43;;;;;;;3.22;2.10;;;24.60;79.30;;;;;;10447615;28;20033;-69
2023/06/21 18:20:44;;;;;;;4.43;2.20;;;24.50;79.40;;;;;;10436619;28;20037;-68
2023/06/21 18:25:44;;;;;;;2.90;1.98;;;24.50;79.10;;;;;;10436024;28;20051;-68
2023/06/21 18:30:45;;;;;;;2.78;1.73;;;24.30;79.10;;;;;;10444900;28;20048;-68
2023/06/21 18:35:46;;;;;;;2.90;1.90;;;24.30;79.70;;;;;;10437932;28;20029;-68
2023/06/21 18:40:46;;;;;;;2.97;2.00;;;24.30;79.30;;;;;;10437475;28;20033;-67
2023/06/21 18:45:47;;;;;;;2.95;2.10;;;24.30;79.40;;;;;;10435392;28;20018;-68
2023/06/21 18:50:50;;;;;;;2.67;2.00;;;24.20;79.40;;;;;;10445843;28;20166;-67
2023/06/21 18:55:50;;;;;;;2.83;1.70;;;24.00;79.50;;;;;;10438986;28;20110;-67
2023/06/21 19:00:51;;;;;;;2.75;1.77;;;23.90;79.50;;;;;;10453889;28;20029;-68
2023/06/21 19:05:54;;;;;;;2.10;1.45;;;23.70;79.70;;;;;;10454672;28;20029;-67
2023/06/21 19:10:54;;;;;;;2.25;1.67;;;23.70;80.00;;;;;;10441958;28;20032;-68
2023/06/21 19:15:55;;;;;;;3.28;1.80;;;23.70;80.20;;;;;;10446200;28;20280;-67
2023/06/21 19:20:56;;;;;;;3.47;2.35;;;23.60;80.20;;;;;;10453676;28;20028;-68
2023/06/21 19:25:56;;;;;;;3.63;2.05;;;23.40;80.40;;;;;;10442964;28;20037;-68
2023/06/21 19:30:57;;;;;;;2.88;2.00;;;23.40;81.40;;;;;;10441794;28;20039;-68
2023/06/21 19:36:00;;;;;;;7.97;2.10;;;23.30;81.10;;;;;;10450654;28;20013;-67
2023/06/21 19:41:01;;;;;;;2.53;1.83;;;23.30;81.20;;;;;;10436563;28;20055;-67
2023/06/21 19:46:02;;;;;;;2.25;1.60;;;23.40;81.00;;;;;;10443044;28;20639;-67
2023/06/21 19:51:02;;;;;;;4.53;2.33;;;23.50;80.70;;;;;;10435527;28;20021;-70
2023/06/21 19:56:03;;;;;;;4.20;2.10;;;23.70;80.40;;;;;;10444087;28;20370;-68
2023/06/21 20:01:04;;;;;;;4.28;1.85;;;23.80;80.20;;;;;;10436641;28;20029;-69
2023/06/21 20:06:05;;;;;;;2.08;1.67;;;23.90;80.20;;;;;;10440702;28;20056;-69
2023/06/21 20:11:05;;;;;;;1.95;1.73;;;24.00;80.10;;;;;;10433930;28;20529;-70
2023/06/21 20:16:09;;;;;;;4.05;2.00;;;24.00;80.10;;;;;;10435840;28;20083;-69
2023/06/21 20:21:10;;;;;;;3.08;2.20;;;24.10;80.10;;;;;;10432893;28;20154;-68
2023/06/21 20:26:10;;;;;;;3.90;2.15;;;24.10;80.10;;;;;;10435030;28;20524;-69
2023/06/21 20:31:11;;;;;;;3.78;1.83;;;24.10;80.10;;;;;;10441524;28;20051;-70
2023/06/21 20:36:11;;;;;;;3.38;1.98;;;24.10;80.20;;;;;;10448381;28;20102;-70
2023/06/21 20:41:12;;;;;;;2.20;1.83;;;24.00;80.10;;;;;;10438361;28;20027;-72
2023/06/21 20:46:15;;;;;;;4.88;2.17;;;24.00;80.20;;;;;;10435823;28;20021;-74
2023/06/21 20:51:16;;;;;;;3.03;2.10;;;24.10;80.30;;;;;;10442191;28;20048;-70
2023/06/21 20:56:17;;;;;;;3.22;2.05;;;24.00;80.30;;;;;;10442222;28;20107;-73
2023/06/21 21:01:17;;;;;;;2.72;1.92;;;24.00;80.30;;;;;;10435069;28;20025;-72
2023/06/21 21:06:18;;;;;;;2.53;1.90;;;24.00;80.30;;;;;;10445263;28;20017;-74
2023/06/21 21:11:18;;;;;;;2.53;2.03;;;24.00;80.40;;;;;;10434601;28;20047;-72
2023/06/21 21:16:19;;;;;;;3.20;2.00;;;24.00;80.50;;;;;;10437148;28;20032;-70
2023/06/21 21:21:21;;;;;;;2.83;2.00;;;24.00;80.50;;;;;;10447116;28;20271;-72
2023/06/21 21:26:21;;;;;;;3.65;1.80;;;23.90;80.60;;;;;;10428687;28;20045;-70
2023/06/21 21:31:22;;;;;;;2.95;2.00;;;23.90;80.60;;;;;;10428660;28;20041;-70
2023/06/21 21:36:22;;;;;;;2.78;2.00;;;23.80;80.60;;;;;;10452354;28;20017;-76
2023/06/21 21:41:23;;;;;;;3.45;2.00;;;23.80;80.70;;;;;;10437271;28;20115;-73
2023/06/21 21:46:23;;;;;;;3.78;2.10;;;23.80;80.70;;;;;;10431485;28;20033;-71
2023/06/21 21:51:25;;;;;;;2.92;1.90;;;23.80;80.80;;;;;;10436142;28;20024;-72
2023/06/21 21:56:25;;;;;;;2.60;2.10;;;23.80;80.90;;;;;;10436823;28;20819;-73
2023/06/21 22:01:26;;;;;;;3.15;2.20;;;23.80;80.90;;;;;;10425163;28;20018;-71
2023/06/21 22:06:27;;;;;;;2.65;1.92;;;23.70;80.90;;;;;;10430820;28;20044;-70
2023/06/21 22:11:33;;;;;;;4.05;2.10;;;23.70;81.00;;;;;;10442660;28;20509;-70
2023/06/21 22:16:33;;;;;;;2.92;2.08;;;23.60;81.00;;;;;;10441653;28;20388;-71
2023/06/21 22:21:34;;;;;;;2.88;2.00;;;23.60;81.10;;;;;;10438827;28;20025;-70
2023/06/21 22:26:35;;;;;;;3.53;2.33;;;23.60;81.10;;;;;;10437160;28;20171;-72
2023/06/21 22:31:35;;;;;;;3.33;2.38;;;23.60;81.10;;;;;;10438690;28;20481;-70
2023/06/21 22:36:37;;;;;;;4.28;2.33;;;23.60;81.20;;;;;;10444819;28;20017;-69
2023/06/21 22:41:40;;;;;;;4.07;2.30;;;23.50;81.20;;;;;;10439672;28;20017;-70
2023/06/21 22:46:41;;;;;;;4.07;2.22;;;23.50;81.20;;;;;;10438824;28;20025;-70
2023/06/21 22:51:41;;;;;;;3.10;2.13;;;23.50;81.30;;;;;;10442529;28;20025;-70
2023/06/21 22:56:42;;;;;;;3.15;2.42;;;23.40;81.30;;;;;;10426593;28;20106;-70
2023/06/21 23:01:42;;;;;;;3.30;2.33;;;23.40;81.40;;;;;;10438916;28;20029;-70
2023/06/21 23:06:43;;;;;;;3.75;2.55;;;23.40;81.40;;;;;;10449256;28;20028;-70
2023/06/21 23:11:43;;;;;;;3.55;2.60;;;23.40;81.40;;;;;;10439406;28;20025;-70
2023/06/21 23:16:44;;;;;;;3.17;2.30;;;23.30;81.50;;;;;;10444949;28;20143;-70
2023/06/21 23:21:46;;;;;;;4.25;2.50;;;23.30;81.50;;;;;;10448434;28;20044;-70
2023/06/21 23:26:48;;;;;;;4.28;2.35;;;23.30;81.60;;;;;;10439895;28;20041;-70
2023/06/21 23:31:49;;;;;;;4.57;2.63;;;23.30;81.60;;;;;;10449892;28;20390;-71
2023/06/21 23:36:50;;;;;;;3.42;2.70;;;23.20;81.60;;;;;;10448607;28;20045;-70
2023/06/21 23:41:50;;;;;;;5.50;3.10;;;23.20;81.70;;;;;;10450633;28;20017;-69
2023/06/21 23:46:51;;;;;;;4.80;2.83;;;23.20;81.80;;;;;;10459299;28;20477;-69
2023/06/21 23:51:56;;;;;;;4.75;2.90;;;23.20;81.80;;;;;;10448432;28;20491;-70
2023/06/21 23:56:57;;;;;;;5.05;2.90;;;23.10;81.80;;;;;;10458952;28;20465;-71
